Time;durP1;ratioP1;P1;durP2;ratioP2;P2;SDS_P1;SDS_P2;PMS_P1;PMS_P2;Temp;Humidity;BMP_temperature;BMP_pressure;BME280_temperature;BME280_humidity;BME280_pressure;Samples;Min_cycle;Max_cycle;Signal;HPM_P1;HPM_P2
2023/03/01 00:02:06;;;;;;;;;;;1.40;99.90;;;;;;6124132;23;19992;-78
2023/03/01 00:04:31;;;;;;;;;;;1.30;99.90;;;;;;6125542;23;19905;-78
2023/03/01 00:06:57;;;;;;;;;;;1.30;99.90;;;;;;6124894;23;19958;-80
2023/03/01 00:09:22;;;;;;;;;;;1.30;1.00;;;;;;6124303;23;19905;-81
2023/03/01 00:11:48;;;;;;;;;;;1.30;1.00;;;;;;6123169;23;19905;-79
2023/03/01 00:14:16;;;;;;;;;;;1.20;1.00;;;;;;6125187;23;19905;-78
2023/03/01 00:16:42;;;;;;;;;;;1.10;1.00;;;;;;6124655;23;19905;-78
2023/03/01 00:19:13;;;;;;;;;;;1.10;1.00;;;;;;6125732;23;19905;-78
2023/03/01 00:21:38;;;;;;;;;;;1.10;1.00;;;;;;6122657;23;20220;-79
2023/03/01 00:24:04;;;;;;;;;;;1.00;99.90;;;;;;6124859;23;19916;-77
2023/03/01 00:26:30;;;;;;;;;;;1.00;99.90;;;;;;6123877;23;19916;-78
2023/03/01 00:28:57;;;;;;;;;;;1.00;99.90;;;;;;6123666;23;19912;-79
2023/03/01 00:31:24;;;;;;;;;;;0.90;99.90;;;;;;6124152;23;20315;-78
2023/03/01 00:33:56;;;;;;;;;;;0.90;99.90;;;;;;6125318;23;19908;-78
2023/03/01 00:36:22;;;;;;;;;;;0.90;99.90;;;;;;6122304;23;19912;-78
2023/03/01 00:38:50;;;;;;;;;;;0.90;1.00;;;;;;6123207;23;19932;-78
2023/03/01 00:41:17;;;;;;;;;;;0.90;1.00;;;;;;6122958;23;19920;-78
2023/03/01 00:43:43;;;;;;;;;;;0.90;99.90;;;;;;6124343;23;20348;-78
2023/03/01 00:46:10;;;;;;;;;;;0.90;99.90;;;;;;6123584;23;19905;-78
2023/03/01 00:48:36;;;;;;;;;;;0.80;70.90;;;;;;6125011;23;19912;-78
2023/03/01 00:51:09;;;;;;;;;;;0.90;99.90;;;;;;6124604;23;19928;-78
2023/03/01 00:53:34;;;;;;;;;;;0.80;1.00;;;;;;6124499;23;19935;-78
2023/03/01 00:56:00;;;;;;;;;;;0.80;99.90;;;;;;6124841;23;19920;-78
2023/03/01 00:58:26;;;;;;;;;;;0.80;99.90;;;;;;6124598;23;19958;-78
2023/03/01 01:00:52;;;;;;;;;;;0.80;1.00;;;;;;6124410;23;19909;-79
2023/03/01 01:03:18;;;;;;;;;;;0.70;1.00;;;;;;6123993;23;19905;-79
2023/03/01 01:05:43;;;;;;;;;;;0.70;99.90;;;;;;6123427;23;19912;-78
2023/03/01 01:08:09;;;;;;;;;;;0.70;1.00;;;;;;6124159;23;19952;-79
2023/03/01 01:10:35;;;;;;;;;;;0.60;1.00;;;;;;6124703;23;19988;-78
2023/03/01 01:13:00;;;;;;;;;;;0.60;1.00;;;;;;6123957;23;19908;-79
2023/03/01 01:15:26;;;;;;;;;;;0.50;99.90;;;;;;6123585;23;19954;-79
2023/03/01 01:17:51;;;;;;;;;;;0.50;99.90;;;;;;6123243;23;19912;-78
2023/03/01 01:20:17;;;;;;;;;;;0.50;1.00;;;;;;6123866;23;20288;-79
2023/03/01 01:22:43;;;;;;;;;;;0.50;1.00;;;;;;6122050;23;19905;-78
2023/03/01 01:25:09;;;;;;;;;;;0.40;99.90;;;;;;6124096;23;19954;-78
2023/03/01 01:27:34;;;;;;;;;;;0.40;1.00;;;;;;6124055;23;19912;-78
2023/03/01 01:30:00;;;;;;;;;;;0.40;1.00;;;;;;6124729;23;19913;-78
2023/03/01 01:32:25;;;;;;;;;;;0.40;99.90;;;;;;6123570;23;19980;-77
2023/03/01 01:34:51;;;;;;;;;;;0.30;40.80;;;;;;6122881;23;19905;-79
2023/03/01 01:37:16;;;;;;;;;;;0.40;1.00;;;;;;6147081;23;19905;-79
2023/03/01 01:39:42;;;;;;;;;;;0.40;1.00;;;;;;6146976;23;20266;-79
2023/03/01 01:42:12;;;;;;;;;;;0.30;99.90;;;;;;6124556;23;20381;-78
2023/03/01 01:44:38;;;;;;;;;;;0.20;1.00;;;;;;6122396;23;19984;-78
2023/03/01 01:47:11;;;;;;;;;;;0.20;1.00;;;;;;6147183;23;19916;-79
2023/03/01 01:49:40;;;;;;;;;;;0.20;1.00;;;;;;6122772;23;19905;-78
2023/03/01 01:52:06;;;;;;;;;;;0.20;99.90;;;;;;6124097;23;19931;-79
2023/03/01 01:54:37;;;;;;;;;;;0.20;99.90;;;;;;6122873;23;19945;-79
2023/03/01 01:57:06;;;;;;;;;;;0.20;1.00;;;;;;6123832;23;19916;-78
2023/03/01 01:59:32;;;;;;;;;;;0.20;1.00;;;;;;6123824;23;19905;-78
2023/03/01 02:01:59;;;;;;;;;;;0.20;1.00;;;;;;6123090;23;20323;-78
2023/03/01 02:04:25;;;;;;;;;;;0.20;99.90;;;;;;6122787;23;19905;-77
2023/03/01 02:07:06;;;;;;;;;;;0.10;15.70;;;;;;6125830;23;19939;-79
2023/03/01 02:09:32;;;;;;;;;;;0.10;1.00;;;;;;6126219;23;19927;-79
2023/03/01 02:11:58;;;;;;;;;;;0.10;1.00;;;;;;6125737;23;19976;-79
2023/03/01 02:14:23;;;;;;;;;;;0.10;1.00;;;;;;6126264;23;19905;-79
2023/03/01 02:16:49;;;;;;;;;;;0.00;99.90;;;;;;6148459;23;19913;-79
2023/03/01 02:19:30;;;;;;;;;;;0.00;1.00;;;;;;6126043;23;19956;-79
2023/03/01 02:22:01;;;;;;;;;;;0.00;99.90;;;;;;6124842;23;19960;-79
2023/03/01 02:24:27;;;;;;;;;;;0.00;99.90;;;;;;6125696;23;19940;-79
2023/03/01 02:26:54;;;;;;;;;;;0.10;1.00;;;;;;6125210;23;19931;-78
2023/03/01 02:29:20;;;;;;;;;;;0.00;99.90;;;;;;6124188;23;19909;-79
2023/03/01 02:31:47;;;;;;;;;;;0.00;99.90;;;;;;6147816;23;20314;-79
2023/03/01 02:34:14;;;;;;;;;;;0.00;99.90;;;;;;6148205;23;19909;-79
2023/03/01 02:36:42;;;;;;;;;;;0.00;1.00;;;;;;6125500;23;19909;-78
2023/03/01 02:39:14;;;;;;;;;;;-0.10;99.90;;;;;;6125391;23;19905;-79
2023/03/01 02:41:42;;;;;;;;;;;-0.10;1.00;;;;;;6126044;23;19913;-79
2023/03/01 02:44:08;;;;;;;;;;;-0.20;1.00;;;;;;6126824;23;19909;-79
2023/03/01 02:46:33;;;;;;;;;;;-0.20;1.00;;;;;;6125662;23;20035;-78
2023/03/01 02:48:59;;;;;;;;;;;-0.20;1.00;;;;;;6149960;23;19909;-79
2023/03/01 02:51:29;;;;;;;;;;;-0.30;1.00;;;;;;6124441;23;19936;-79
2023/03/01 02:54:08;;;;;;;;;;;-0.30;1.00;;;;;;6125981;23;19996;-79
2023/03/01 02:56:34;;;;;;;;;;;-0.30;1.00;;;;;;6124146;23;19944;-76
2023/03/01 02:59:00;;;;;;;;;;;-0.30;1.00;;;;;;6125357;23;19939;-79
2023/03/01 03:01:36;;;;;;;;;;;-0.30;1.00;;;;;;6126014;23;20362;-79
2023/03/01 03:04:16;;;;;;;;;;;-0.30;1.00;;;;;;6125971;23;19905;-78
2023/03/01 03:06:43;;;;;;;;;;;-0.40;99.90;;;;;;6125689;23;19931;-78
2023/03/01 03:09:08;;;;;;;;;;;-0.30;99.90;;;;;;6125171;23;19951;-79
2023/03/01 03:11:33;;;;;;;;;;;-0.30;99.90;;;;;;6148696;23;20327;-79
2023/03/01 03:13:59;;;;;;;;;;;-0.40;1.00;;;;;;6126488;23;19909;-79
2023/03/01 03:16:24;;;;;;;;;;;-0.40;99.90;;;;;;6125886;23;19951;-78
2023/03/01 03:18:50;;;;;;;;;;;-0.40;99.90;;;;;;6124512;23;19904;-79
2023/03/01 03:21:16;;;;;;;;;;;-0.40;1.00;;;;;;6125384;23;19909;-78
2023/03/01 03:23:41;;;;;;;;;;;-0.40;99.90;;;;;;6125253;23;19905;-78
2023/03/01 03:26:07;;;;;;;;;;;-0.40;1.00;;;;;;6125831;23;20286;-79
2023/03/01 03:28:33;;;;;;;;;;;-0.50;99.90;;;;;;6125664;23;19954;-78
2023/03/01 03:31:03;;;;;;;;;;;-0.40;1.00;;;;;;6124920;23;19905;-78
2023/03/01 03:33:29;;;;;;;;;;;-0.50;1.00;;;;;;6124688;23;19970;-78
2023/03/01 03:35:54;;;;;;;;;;;-0.50;99.90;;;;;;6126247;23;19905;-79
2023/03/01 03:38:21;;;;;;;;;;;-0.50;99.90;;;;;;6124773;23;19955;-78
2023/03/01 03:40:47;;;;;;;;;;;-0.60;99.90;;;;;;6125346;23;20000;-78
2023/03/01 03:43:13;;;;;;;;;;;-0.60;61.70;;;;;;6125398;23;19905;-79
2023/03/01 03:45:39;;;;;;;;;;;-0.60;17.20;;;;;;6124719;23;19909;-79
2023/03/01 03:48:05;;;;;;;;;;;-0.70;99.90;;;;;;6125839;23;19927;-79
2023/03/01 03:50:31;;;;;;;;;;;-0.70;99.90;;;;;;6123700;23;20396;-79
2023/03/01 03:52:57;;;;;;;;;;;-0.70;99.90;;;;;;6124095;23;19909;-78
2023/03/01 03:55:22;;;;;;;;;;;-0.70;99.90;;;;;;6125147;23;19911;-77
2023/03/01 03:57:51;;;;;;;;;;;-0.70;99.90;;;;;;6124064;23;19905;-79
2023/03/01 04:00:20;;;;;;;;;;;-0.80;99.90;;;;;;6125576;23;19979;-79
2023/03/01 04:02:46;;;;;;;;;;;-0.70;99.90;;;;;;6123641;23;19906;-78
2023/03/01 04:05:14;;;;;;;;;;;-0.70;99.90;;;;;;6125554;23;19919;-78
2023/03/01 04:07:39;;;;;;;;;;;-0.80;1.00;;;;;;6125220;23;20354;-79
2023/03/01 04:10:06;;;;;;;;;;;-0.80;99.90;;;;;;6122695;23;19905;-76
2023/03/01 04:12:33;;;;;;;;;;;-0.80;99.90;;;;;;6120958;23;19911;-77
2023/03/01 04:15:12;;;;;;;;;;;-0.80;18.80;;;;;;6126160;23;19909;-78
2023/03/01 04:17:41;;;;;;;;;;;-0.80;1.00;;;;;;6125160;23;19905;-78
2023/03/01 04:20:08;;;;;;;;;;;-0.80;1.00;;;;;;6125054;23;19928;-79
2023/03/01 04:22:33;;;;;;;;;;;-0.80;99.90;;;;;;6124554;23;20247;-79
2023/03/01 04:25:05;;;;;;;;;;;-0.80;99.90;;;;;;6126376;23;19909;-80
2023/03/01 04:27:33;;;;;;;;;;;-0.80;99.90;;;;;;6125785;23;20220;-77
2023/03/01 04:29:58;;;;;;;;;;;-0.90;99.90;;;;;;6126886;23;19905;-79
2023/03/01 04:32:24;;;;;;;;;;;-0.90;99.90;;;;;;6125685;23;19971;-78
2023/03/01 04:34:49;;;;;;;;;;;-0.90;99.90;;;;;;6150915;23;19909;-80
2023/03/01 04:37:15;;;;;;;;;;;-0.90;99.90;;;;;;6126215;23;19926;-78
2023/03/01 04:39:45;;;;;;;;;;;-0.90;99.90;;;;;;6150286;23;19958;-79
2023/03/01 04:42:13;;;;;;;;;;;-0.90;76.90;;;;;;6125079;23;19936;-80
2023/03/01 04:44:38;;;;;;;;;;;-0.90;99.90;;;;;;6125609;23;19905;-80
2023/03/01 04:47:04;;;;;;;;;;;-1.00;99.90;;;;;;6126281;23;19957;-80
2023/03/01 04:49:29;;;;;;;;;;;-1.00;99.90;;;;;;6149604;23;19905;-80
2023/03/01 04:51:58;;;;;;;;;;;-1.00;99.90;;;;;;6126631;23;19905;-79
2023/03/01 04:54:23;;;;;;;;;;;-1.00;99.90;;;;;;6125686;23;19913;-79
2023/03/01 04:56:49;;;;;;;;;;;-1.00;99.90;;;;;;6148088;23;19936;-77
2023/03/01 04:59:14;;;;;;;;;;;-1.10;99.90;;;;;;6125430;23;19988;-78
2023/03/01 05:01:42;;;;;;;;;;;-1.00;99.90;;;;;;6124269;23;19916;-79
2023/03/01 05:04:12;;;;;;;;;;;-1.10;99.90;;;;;;6149205;23;19953;-80
2023/03/01 05:06:39;;;;;;;;;;;-1.10;99.90;;;;;;6125786;23;19912;-80
2023/03/01 05:09:04;;;;;;;;;;;-1.10;99.90;;;;;;6126230;23;19913;-78
2023/03/01 05:11:33;;;;;;;;;;;-1.10;99.90;;;;;;6123103;23;19905;-77
2023/03/01 05:13:59;;;;;;;;;;;-1.10;99.90;;;;;;6122790;23;19911;-77
2023/03/01 05:16:24;;;;;;;;;;;-1.10;99.90;;;;;;6124440;23;20249;-78
2023/03/01 05:18:50;;;;;;;;;;;-1.10;99.90;;;;;;6149571;23;20345;-79
2023/03/01 05:21:16;;;;;;;;;;;-1.10;1.00;;;;;;6126154;23;19988;-79
2023/03/01 05:23:41;;;;;;;;;;;-1.20;1.00;;;;;;6150021;23;19909;-77
2023/03/01 05:26:07;;;;;;;;;;;-1.20;99.90;;;;;;6147831;23;19915;-79
2023/03/01 05:28:32;;;;;;;;;;;-1.20;99.90;;;;;;6127097;23;20318;-78
2023/03/01 05:30:58;;;;;;;;;;;-1.20;99.90;;;;;;6149165;23;19987;-78
2023/03/01 05:33:24;;;;;;;;;;;-1.20;99.90;;;;;;6125347;23;19916;-79
2023/03/01 05:35:50;;;;;;;;;;;-1.20;99.90;;;;;;6122775;23;19909;-79
2023/03/01 05:38:16;;;;;;;;;;;-1.20;99.90;;;;;;6124791;23;19916;-79
2023/03/01 05:40:43;;;;;;;;;;;-1.30;1.00;;;;;;6125921;23;20242;-79
2023/03/01 05:43:09;;;;;;;;;;;-1.30;1.00;;;;;;6124635;23;19905;-79
2023/03/01 05:45:36;;;;;;;;;;;-1.30;1.00;;;;;;6126171;23;19975;-79
2023/03/01 05:48:01;;;;;;;;;;;-1.30;1.00;;;;;;6126278;23;19905;-79
2023/03/01 05:50:28;;;;;;;;;;;-1.40;1.00;;;;;;6126375;23;19988;-79
2023/03/01 05:53:05;;;;;;;;;;;-1.40;1.00;;;;;;6125696;23;19953;-78
2023/03/01 05:55:32;;;;;;;;;;;-1.40;1.00;;;;;;6124862;23;19905;-79
2023/03/01 05:57:58;;;;;;;;;;;-1.40;1.00;;;;;;6125952;23;19905;-79
2023/03/01 06:00:23;;;;;;;;;;;-1.40;1.00;;;;;;6124597;23;19905;-79
2023/03/01 06:02:49;;;;;;;;;;;-1.40;1.00;;;;;;6124923;23;19932;-78
2023/03/01 06:05:15;;;;;;;;;;;-1.40;1.00;;;;;;6125745;23;19909;-79
2023/03/01 06:07:41;;;;;;;;;;;-1.40;1.00;;;;;;6121864;22;19927;-79
2023/03/01 06:10:07;;;;;;;;;;;-1.40;1.00;;;;;;6120884;23;19911;-79
2023/03/01 06:12:33;;;;;;;;;;;-1.40;1.00;;;;;;6120654;23;20352;-79
2023/03/01 06:14:59;;;;;;;;;;;-1.40;1.00;;;;;;6122019;23;19905;-79
2023/03/01 06:17:24;;;;;;;;;;;-1.40;1.00;;;;;;6122159;23;20230;-79
2023/03/01 06:19:50;;;;;;;;;;;-1.40;1.00;;;;;;6122098;23;19913;-79
2023/03/01 06:22:15;;;;;;;;;;;-1.40;1.00;;;;;;6096806;23;19912;-79
2023/03/01 06:24:41;;;;;;;;;;;-1.40;1.00;;;;;;6123265;23;19931;-79
2023/03/01 06:27:06;;;;;;;;;;;-1.40;1.00;;;;;;6122631;23;20234;-79
2023/03/01 06:29:32;;;;;;;;;;;-1.30;99.90;;;;;;6122183;23;19905;-79
2023/03/01 06:31:57;;;;;;;;;;;-1.30;99.90;;;;;;6122224;23;19932;-79
2023/03/01 06:34:23;;;;;;;;;;;-1.30;99.90;;;;;;6122527;23;19905;-79
2023/03/01 06:36:48;;;;;;;;;;;-1.30;99.90;;;;;;6096485;23;19912;-79
2023/03/01 06:39:13;;;;;;;;;;;-1.20;99.90;;;;;;6120766;23;20317;-79
2023/03/01 06:41:39;;;;;;;;;;;-1.20;99.90;;;;;;6096065;23;19905;-79
2023/03/01 06:44:04;;;;;;;;;;;-1.20;99.90;;;;;;6122243;23;19905;-79
2023/03/01 06:46:30;;;;;;;;;;;-1.20;99.90;;;;;;6122157;23;19992;-79
2023/03/01 06:48:56;;;;;;;;;;;-1.20;1.00;;;;;;6122389;23;19940;-79
2023/03/01 06:51:21;;;;;;;;;;;-1.20;99.90;;;;;;6122373;23;19909;-79
2023/03/01 06:53:46;;;;;;;;;;;-1.10;99.90;;;;;;6123035;23;19975;-79
2023/03/01 06:56:12;;;;;;;;;;;-1.10;99.90;;;;;;6096791;23;19905;-79
2023/03/01 06:58:37;;;;;;;;;;;-1.10;99.90;;;;;;6097440;23;19905;-79
2023/03/01 07:01:09;;;;;;;;;;;-1.00;99.90;;;;;;6122917;23;20403;-79
2023/03/01 07:03:34;;;;;;;;;;;-1.00;1.00;;;;;;6123157;23;19975;-79
2023/03/01 07:06:00;;;;;;;;;;;-1.00;1.00;;;;;;6122893;23;19916;-79
2023/03/01 07:08:26;;;;;;;;;;;-0.90;1.00;;;;;;6123318;23;19905;-79
2023/03/01 07:10:55;;;;;;;;;;;-0.90;1.00;;;;;;6122862;23;20003;-79
2023/03/01 07:13:20;;;;;;;;;;;-0.90;1.00;;;;;;6120950;23;19916;-79
2023/03/01 07:15:46;;;;;;;;;;;-0.80;1.00;;;;;;6096500;23;19906;-79
2023/03/01 07:18:11;;;;;;;;;;;-0.80;1.00;;;;;;6122387;23;19976;-79
2023/03/01 07:20:36;;;;;;;;;;;-0.70;1.00;;;;;;6122551;23;19936;-79
2023/03/01 07:23:02;;;;;;;;;;;-0.70;1.00;;;;;;6122293;23;19967;-79
2023/03/01 07:25:27;;;;;;;;;;;-0.60;99.90;;;;;;6122247;23;19984;-79
2023/03/01 07:27:53;;;;;;;;;;;-0.50;99.90;;;;;;6123084;23;20281;-79
2023/03/01 07:30:19;;;;;;;;;;;-0.50;99.90;;;;;;6096456;23;19944;-79
2023/03/01 07:32:45;;;;;;;;;;;-0.50;99.90;;;;;;6096224;23;19909;-79
2023/03/01 07:35:11;;;;;;;;;;;-0.40;99.90;;;;;;6122480;23;19976;-79
2023/03/01 07:37:36;;;;;;;;;;;-0.20;99.90;;;;;;6121855;23;19915;-79
2023/03/01 07:40:02;;;;;;;;;;;-0.10;99.90;;;;;;6121966;23;20031;-79
2023/03/01 07:42:27;;;;;;;;;;;-0.10;99.90;;;;;;6123189;23;19983;-79
2023/03/01 07:44:53;;;;;;;;;;;0.00;99.90;;;;;;6126404;23;19950;-79
2023/03/01 07:47:18;;;;;;;;;;;0.10;99.90;;;;;;6099093;23;19908;-79
2023/03/01 07:49:44;;;;;;;;;;;0.30;1.00;;;;;;6097992;23;19954;-79
2023/03/01 07:52:11;;;;;;;;;;;0.40;1.00;;;;;;6123732;23;19920;-79
2023/03/01 07:54:36;;;;;;;;;;;0.40;9.60;;;;;;6123561;23;19976;-79
2023/03/01 07:57:02;;;;;;;;;;;0.50;1.00;;;;;;6126327;23;19929;-79
2023/03/01 07:59:28;;;;;;;;;;;0.60;99.90;;;;;;6129946;23;19912;-79
2023/03/01 08:01:55;;;;;;;;;;;0.80;83.80;;;;;;6124063;23;20289;-79
2023/03/01 08:04:21;;;;;;;;;;;0.90;1.00;;;;;;6123821;23;20302;-79
2023/03/01 08:06:46;;;;;;;;;;;1.00;99.90;;;;;;6123224;23;19913;-79
2023/03/01 08:09:11;;;;;;;;;;;1.20;99.90;;;;;;6123720;23;19936;-79
2023/03/01 08:11:37;;;;;;;;;;;1.30;1.00;;;;;;6122920;23;19909;-79
2023/03/01 08:14:02;;;;;;;;;;;1.40;99.90;;;;;;6123566;23;20330;-79
2023/03/01 08:16:28;;;;;;;;;;;1.50;99.90;;;;;;6123366;23;19939;-79
2023/03/01 08:18:56;;;;;;;;;;;1.70;99.90;;;;;;6123203;23;20401;-79
2023/03/01 08:21:21;;;;;;;;;;;1.80;1.00;;;;;;6122197;23;19937;-79
2023/03/01 08:23:47;;;;;;;;;;;1.90;99.90;;;;;;6121783;23;20349;-79
2023/03/01 08:26:12;;;;;;;;;;;2.10;99.90;;;;;;6122389;23;19909;-79
2023/03/01 08:28:38;;;;;;;;;;;2.10;99.90;;;;;;6123068;23;19912;-79
2023/03/01 08:31:19;;;;;;;;;;;2.30;99.90;;;;;;6122533;23;19913;-79
2023/03/01 08:33:50;;;;;;;;;;;2.40;99.90;;;;;;6123202;23;19911;-79
2023/03/01 08:36:16;;;;;;;;;;;2.60;1.00;;;;;;6096891;23;20254;-79
2023/03/01 08:38:42;;;;;;;;;;;2.70;95.40;;;;;;6122487;23;19955;-78
2023/03/01 08:41:07;;;;;;;;;;;2.90;9.00;;;;;;6121467;23;19904;-78
2023/03/01 08:43:33;;;;;;;;;;;3.00;1.00;;;;;;6122402;23;19905;-79
2023/03/01 08:45:58;;;;;;;;;;;3.10;99.90;;;;;;6122391;23;20227;-80
2023/03/01 08:48:24;;;;;;;;;;;3.20;99.90;;;;;;6123146;23;19905;-79
2023/03/01 08:50:49;;;;;;;;;;;3.30;99.90;;;;;;6122256;23;20374;-79
2023/03/01 08:53:14;;;;;;;;;;;3.40;99.90;;;;;;6095566;23;20343;-79
2023/03/01 08:55:40;;;;;;;;;;;3.50;99.90;;;;;;6095630;23;19905;-80
2023/03/01 08:58:05;;;;;;;;;;;3.60;99.90;;;;;;6096281;23;19905;-80
2023/03/01 09:00:34;;;;;;;;;;;3.70;86.30;;;;;;6122869;23;19905;-80
2023/03/01 09:03:00;;;;;;;;;;;3.80;6.10;;;;;;6121226;23;20284;-80
2023/03/01 09:05:25;;;;;;;;;;;3.90;1.00;;;;;;6117974;23;19958;-80
2023/03/01 09:07:51;;;;;;;;;;;4.10;1.00;;;;;;6122320;23;20331;-80
2023/03/01 09:10:17;;;;;;;;;;;4.20;1.00;;;;;;6122062;23;19905;-80
2023/03/01 09:12:42;;;;;;;;;;;4.30;1.00;;;;;;6121333;23;19916;-80
2023/03/01 09:15:08;;;;;;;;;;;4.40;1.00;;;;;;6121235;23;19905;-80
2023/03/01 09:17:33;;;;;;;;;;;4.50;1.00;;;;;;6121534;23;19912;-80
2023/03/01 09:19:59;;;;;;;;;;;4.60;1.00;;;;;;6120457;23;19916;-80
2023/03/01 09:22:25;;;;;;;;;;;4.70;1.00;;;;;;6118924;23;19985;-81
2023/03/01 09:24:50;;;;;;;;;;;4.80;1.00;;;;;;6123094;23;20230;-81
2023/03/01 09:27:18;;;;;;;;;;;4.80;1.00;;;;;;6123603;23;19905;-81
2023/03/01 09:29:44;;;;;;;;;;;4.90;1.00;;;;;;6123877;23;19955;-81
2023/03/01 09:32:10;;;;;;;;;;;5.00;1.00;;;;;;6123453;23;20227;-81
2023/03/01 09:35:00;;;;;;;;;;;5.10;1.00;;;;;;6124334;23;19905;-81
2023/03/01 09:37:21;;;;;;;;;;;5.20;1.00;;;;;;6120989;23;19905;-82
2023/03/01 09:39:46;;;;;;;;;;;5.40;1.00;;;;;;6121008;23;19911;-81
2023/03/01 09:42:12;;;;;;;;;;;5.50;1.00;;;;;;6121079;23;19912;-81
2023/03/01 09:44:42;;;;;;;;;;;5.50;1.00;;;;;;6095637;23;19905;-81
2023/03/01 09:47:15;;;;;;;;;;;5.60;1.00;;;;;;6121586;23;20220;-81
2023/03/01 09:49:48;;;;;;;;;;;5.60;1.00;;;;;;6120509;23;19909;-83
2023/03/01 09:52:29;;;;;;;;;;;5.70;1.00;;;;;;6095775;23;20315;-83
2023/03/01 09:54:55;;;;;;;;;;;5.80;1.00;;;;;;6096176;23;19909;-83
2023/03/01 09:57:28;;;;;;;;;;;5.90;1.00;;;;;;6096678;23;20031;-83
2023/03/01 10:00:00;;;;;;;;;;;6.00;1.00;;;;;;6122206;23;19912;-84
2023/03/01 10:02:34;;;;;;;;;;;6.20;99.90;;;;;;6122390;23;20345;-83
2023/03/01 10:05:13;;;;;;;;;;;6.30;1.00;;;;;;6122500;23;19916;-83
2023/03/01 10:08:06;;;;;;;;;;;6.30;99.90;;;;;;6122326;23;20297;-83
2023/03/01 10:10:33;;;;;;;;;;;6.40;99.90;;;;;;6122491;23;19959;-83
2023/03/01 10:12:59;;;;;;;;;;;6.50;99.90;;;;;;6095799;23;19905;-83
2023/03/01 10:15:30;;;;;;;;;;;6.60;99.90;;;;;;6122274;23;19912;-83
2023/03/01 10:18:07;;;;;;;;;;;6.60;99.90;;;;;;6095950;23;20314;-84
2023/03/01 10:20:52;;;;;;;;;;;6.80;99.90;;;;;;6122057;23;19932;-83
2023/03/01 10:23:18;;;;;;;;;;;6.90;99.90;;;;;;6101281;23;19905;-83
2023/03/01 10:26:03;;;;;;;;;;;7.00;99.90;;;;;;6122073;23;19912;-83
2023/03/01 10:28:32;;;;;;;;;;;7.10;99.90;;;;;;6121719;23;19905;-83
2023/03/01 10:30:58;;;;;;;;;;;7.20;99.90;;;;;;6121637;23;19967;-84
2023/03/01 10:33:28;;;;;;;;;;;7.30;99.90;;;;;;6122115;23;20289;-81
2023/03/01 10:35:54;;;;;;;;;;;7.70;99.90;;;;;;6122361;23;19905;-82
2023/03/01 10:38:22;;;;;;;;;;;9.40;99.90;;;;;;6122273;23;19916;-81
2023/03/01 10:40:51;;;;;;;;;;;12.10;99.90;;;;;;6121736;23;19912;-82
2023/03/01 10:43:17;;;;;;;;;;;15.10;99.90;;;;;;6095661;23;19905;-82
2023/03/01 10:45:42;;;;;;;;;;;17.30;99.90;;;;;;6122111;23;20362;-82
2023/03/01 10:48:08;;;;;;;;;;;18.70;99.90;;;;;;6122431;23;20238;-82
2023/03/01 10:50:33;;;;;;;;;;;19.90;99.90;;;;;;6122050;23;19955;-82
2023/03/01 10:53:03;;;;;;;;;;;21.70;99.90;;;;;;6121605;23;19929;-82
2023/03/01 10:55:36;;;;;;;;;;;22.50;99.90;;;;;;6121878;23;19995;-83
2023/03/01 10:58:21;;;;;;;;;;;24.10;99.90;;;;;;6122556;23;19920;-82
2023/03/01 11:00:48;;;;;;;;;;;25.60;99.90;;;;;;6121892;23;19988;-82
2023/03/01 11:03:15;;;;;;;;;;;27.00;99.90;;;;;;6122052;23;19905;-83
2023/03/01 11:06:00;;;;;;;;;;;27.70;99.90;;;;;;6122495;23;19905;-83
2023/03/01 11:08:30;;;;;;;;;;;28.90;99.90;;;;;;6096283;23;19905;-82
2023/03/01 11:11:06;;;;;;;;;;;29.50;99.90;;;;;;6122007;23;19955;-83
2023/03/01 11:13:32;;;;;;;;;;;29.40;99.90;;;;;;6122879;23;19905;-83
2023/03/01 11:16:02;;;;;;;;;;;30.20;99.90;;;;;;6122909;23;19936;-83
2023/03/01 11:18:29;;;;;;;;;;;30.70;99.90;;;;;;6122490;23;20315;-83
2023/03/01 11:20:55;;;;;;;;;;;30.50;99.90;;;;;;6122440;23;19912;-82
2023/03/01 11:23:22;;;;;;;;;;;30.40;99.90;;;;;;6121928;23;19932;-83
2023/03/01 11:25:59;;;;;;;;;;;30.30;99.90;;;;;;6121846;23;19906;-83
2023/03/01 11:28:25;;;;;;;;;;;30.30;99.90;;;;;;6096860;23;19949;-83
2023/03/01 11:31:00;;;;;;;;;;;30.80;99.90;;;;;;6122867;23;19909;-83
2023/03/01 11:33:32;;;;;;;;;;;30.90;99.90;;;;;;6122506;23;20331;-83
2023/03/01 11:36:13;;;;;;;;;;;31.00;99.90;;;;;;6122781;23;19913;-83
2023/03/01 11:38:39;;;;;;;;;;;30.10;99.90;;;;;;6122547;23;19937;-83
2023/03/01 11:41:07;;;;;;;;;;;29.60;99.90;;;;;;6122083;23;20246;-83
2023/03/01 11:43:39;;;;;;;;;;;29.30;99.90;;;;;;6122761;23;19905;-83
2023/03/01 11:46:10;;;;;;;;;;;29.50;99.90;;;;;;6096247;23;19954;-83
2023/03/01 11:48:41;;;;;;;;;;;30.00;99.90;;;;;;6122976;23;19911;-83
2023/03/01 11:51:17;;;;;;;;;;;30.00;99.90;;;;;;6122448;23;19913;-83
2023/03/01 11:53:59;;;;;;;;;;;30.20;99.90;;;;;;6098167;23;19905;-82
2023/03/01 11:56:33;;;;;;;;;;;30.60;99.90;;;;;;6117464;23;20326;-81
2023/03/01 11:59:05;;;;;;;;;;;30.60;99.90;;;;;;6121091;23;20357;-81
2023/03/01 12:01:53;;;;;;;;;;;30.90;99.90;;;;;;6119631;23;20503;-82
2023/03/01 12:04:19;;;;;;;;;;;30.70;99.90;;;;;;6133333;23;19915;-81
2023/03/01 12:48:24;;;;;;;;;;;22.40;99.90;;;;;;6119869;23;19921;-79
2023/03/01 12:50:51;;;;;;;;;;;23.80;99.90;;;;;;6223707;23;19905;-78
2023/03/01 12:53:25;;;;;;;;;;;25.60;99.90;;;;;;6121684;23;20166;-78
2023/03/01 12:55:51;;;;;;;;;;;26.50;99.90;;;;;;6227537;23;19905;-79
2023/03/01 12:58:26;;;;;;;;;;;27.10;99.90;;;;;;6230395;22;20288;-80
2023/03/01 13:00:51;;;;;;;;;;;27.10;99.90;;;;;;6228250;23;19916;-79
2023/03/01 13:03:32;;;;;;;;;;;25.60;99.90;;;;;;6229518;23;19916;-80
2023/03/01 13:05:58;;;;;;;;;;;24.10;99.90;;;;;;6126387;23;20356;-79
2023/03/01 13:08:46;;;;;;;;;;;22.90;99.90;;;;;;6227788;23;19905;-80
2023/03/01 13:11:16;;;;;;;;;;;21.70;99.90;;;;;;6168514;23;19913;-79
2023/03/01 13:13:41;;;;;;;;;;;20.70;99.90;;;;;;6125893;23;19976;-79
2023/03/01 13:16:21;;;;;;;;;;;20.60;99.90;;;;;;6227846;23;19916;-79
2023/03/01 13:18:46;;;;;;;;;;;21.40;99.90;;;;;;6253094;22;19954;-79
2023/03/01 13:21:12;;;;;;;;;;;22.50;99.90;;;;;;6126527;23;19952;-79
2023/03/01 13:23:39;;;;;;;;;;;22.80;99.90;;;;;;6227269;23;19909;-79
2023/03/01 13:26:13;;;;;;;;;;;23.20;99.90;;;;;;6252729;22;19905;-80
2023/03/01 13:28:45;;;;;;;;;;;23.40;99.90;;;;;;6125835;23;19980;-80
2023/03/01 13:31:31;;;;;;;;;;;24.20;99.90;;;;;;6226920;23;19905;-80
2023/03/01 13:33:58;;;;;;;;;;;24.90;99.90;;;;;;6125217;23;19911;-80
2023/03/01 13:42:01;;;;;;;;;;;23.00;99.90;;;;;;6280048;22;20256;-79
2023/03/01 13:44:35;;;;;;;;;;;22.50;99.90;;;;;;6280242;22;19919;-79
2023/03/01 13:47:08;;;;;;;;;;;22.60;99.90;;;;;;6278696;22;19910;-79
2023/03/01 13:49:40;;;;;;;;;;;22.30;99.90;;;;;;6279566;22;19903;-79
2023/03/01 13:52:14;;;;;;;;;;;22.30;99.90;;;;;;6277686;22;19907;-82
2023/03/01 13:54:39;;;;;;;;;;;21.60;99.90;;;;;;6252296;22;19904;-83
2023/03/01 14:04:43;;;;;;;;;;;18.00;99.90;;;;;;6126534;23;19921;-83
2023/03/01 14:07:18;;;;;;;;;;;17.20;99.90;;;;;;6140792;23;19905;-82
2023/03/01 14:09:45;;;;;;;;;;;16.50;99.90;;;;;;6155504;23;19905;-82
2023/03/01 14:12:18;;;;;;;;;;;16.20;99.90;;;;;;6155895;23;19912;-79
2023/03/01 14:14:46;;;;;;;;;;;16.00;99.90;;;;;;6156032;23;19987;-80
2023/03/01 14:17:30;;;;;;;;;;;15.80;99.90;;;;;;6155846;23;20368;-82
2023/03/01 14:19:58;;;;;;;;;;;16.20;99.90;;;;;;6155558;23;19933;-82
2023/03/01 14:22:31;;;;;;;;;;;18.20;99.90;;;;;;6129826;23;19916;-83
2023/03/01 14:24:58;;;;;;;;;;;20.30;99.90;;;;;;6155873;23;20326;-81
2023/03/01 14:27:34;;;;;;;;;;;21.80;99.90;;;;;;6129657;23;20250;-81
2023/03/01 14:30:01;;;;;;;;;;;22.60;99.90;;;;;;6129957;23;19905;-83
2023/03/01 14:32:28;;;;;;;;;;;23.10;99.90;;;;;;6129844;23;19904;-83
2023/03/01 14:34:54;;;;;;;;;;;23.80;99.90;;;;;;6156847;23;19911;-82
2023/03/01 14:37:27;;;;;;;;;;;24.70;99.90;;;;;;6158474;23;19919;-82
2023/03/01 14:39:53;;;;;;;;;;;25.50;99.90;;;;;;6124850;23;19905;-81
2023/03/01 14:42:23;;;;;;;;;;;26.00;99.90;;;;;;6124654;23;19912;-79
2023/03/01 14:44:52;;;;;;;;;;;26.80;99.90;;;;;;6125274;23;19916;-79
2023/03/01 14:47:35;;;;;;;;;;;26.90;99.90;;;;;;6151103;23;19909;-78
2023/03/01 14:50:07;;;;;;;;;;;27.10;99.90;;;;;;6150207;23;19912;-78
2023/03/01 14:52:39;;;;;;;;;;;27.60;99.90;;;;;;6124835;23;20245;-77
2023/03/01 14:55:13;;;;;;;;;;;28.20;99.90;;;;;;6150920;23;19905;-78
2023/03/01 14:57:42;;;;;;;;;;;28.00;99.90;;;;;;6125193;23;19916;-78
2023/03/01 15:00:08;;;;;;;;;;;28.20;99.90;;;;;;6125060;23;20370;-78
2023/03/01 15:02:34;;;;;;;;;;;28.30;99.90;;;;;;6124409;23;19932;-78
2023/03/01 15:05:01;;;;;;;;;;;27.90;99.90;;;;;;6125490;23;20292;-78
2023/03/01 15:07:29;;;;;;;;;;;26.90;99.90;;;;;;6151236;23;20330;-78
2023/03/01 15:09:55;;;;;;;;;;;26.40;99.90;;;;;;6125123;23;20030;-78
2023/03/01 15:12:25;;;;;;;;;;;26.00;99.90;;;;;;6124773;23;19943;-78
2023/03/01 15:14:52;;;;;;;;;;;25.90;99.90;;;;;;6150919;23;20361;-78
2023/03/01 15:17:20;;;;;;;;;;;25.60;99.90;;;;;;6149512;23;20068;-78
2023/03/01 15:19:47;;;;;;;;;;;24.80;99.90;;;;;;6151266;23;19927;-78
2023/03/01 15:22:15;;;;;;;;;;;24.00;99.90;;;;;;6150982;23;19915;-78
2023/03/01 15:24:41;;;;;;;;;;;23.30;99.90;;;;;;6151473;23;20265;-78
2023/03/01 15:27:15;;;;;;;;;;;21.90;99.90;;;;;;6150548;23;19905;-79